Wenatchee, WA

3:17 PM PST on December 17, 2014 (GMT -0800)
Ephrata Municipal | Change Station
CLOSE
Current Station
Airport
Location: Ephrata,
Elevation: 1273 ft
Nearby Weather Stations
Active Advisory: Air Stagnation Advisory

Elev 1273 ft 47.31 °N, 119.52 °W | Updated 10 minutes ago

Overcast
Overcast
39 °F
Feels Like 33 °F
N
9
Wind Variable Wind from NNW

Today
High -- | Low -- °F
--% Chance of Precip.
Yesterday
High -- | Low -- °F
Precip. -- in
7:43 AM 4:11 PM
Waning Crescent, 19% visible
Pressure 29.91 in
Visibility 10.0 miles
Clouds Scattered Clouds 2300 ft
Overcast 10000 ft
Windchill 33 °F
Dew Point 35 °F
Humidity 86%
Rainfall 0.02 in
Snow Depth Not available.
UV 0 out of 12
Pollen .40 out of 12
Air Quality Not available.
Flu Activity Not available.
SPECI KEPH 172307Z AUTO 34008KT 10SM SCT023 OVC100 04/02 A2991 RMK AO2 T00390017

More Conditions Fewer Conditions

Pressure 29.91 in
Visibility 10.0 miles
Clouds Scattered Clouds 2300 ft
Overcast 10000 ft
Windchill 33 °F
Dew Point 35 °F
Humidity 86%
Rainfall 0.02 in
Snow Depth Not available.
UV 0 out of 12
Pollen .40 out of 12
Air Quality Not available.
Flu Activity Not available.
SPECI KEPH 172307Z AUTO 34008KT 10SM SCT023 OVC100 04/02 A2991 RMK AO2 T00390017

More Conditions Fewer Conditions

10-Day Weather Forecast

Almanac

Astronomy

Dec. 17, 2014 Rise Set
Actual Time
Civil Twilight
Nautical Twilight
Astronomical Twilight
Moon
Length of Visible Light
Length of Day
Tomorrow will be .
, % of the Moon is Illuminated

Today's Extremes

State Highs State Lows

Community

WunderPhotos

Upload Photos

1,778,822 photos uploaded!

WunderBlogs® & News

Nearby

Air Quality

  Air Quality AQ Index Pollutant
Not available.

Snow Depth

Station Depth Elevation

Earthquake Activity

City Distance Mag. Time & Date
Minimum magnitude displayed is 2.5.

Coastal Water Temperatures

Place Temperature

Nearby Weather Stations